SU1330 / RA-89110 7700 Squawk Report (26th of March, 2020)

Aircraft SU95 Reg No. RA-89110 Age 2 years old
Model SSJ-100 Jet engines 2 First flight 13-04-18
Registered 31-08-18 Rollout 04-18 Delivered 31-08-18
Construction No. 95161 Line No. 161 Series 95B
ADSHEX 155C16 Airline name Aeroflot Russian Airlines Owner N/A
Airfield based Moscow-Sheremetyevo~Moscow~RA First tracked N/A

Flight history for RA-89110

Route Flight No Date Playback
Orenburg (REN) - Sheremetyevo (SVO) SU1247 2020-05-29 09:34:00
Sheremetyevo (SVO) - Orenburg (REN) SU1246 2020-05-29 07:41:00
Pashkovskiy (KRR) - Sheremetyevo (SVO) SU1101 2020-05-26 11:59:00
Sheremetyevo (SVO) - Pashkovskiy (KRR) SU1100 2020-05-26 10:03:00
Orenburg (REN) - Sheremetyevo (SVO) SU1249 2020-05-25 16:12:00
Sheremetyevo (SVO) - Orenburg (REN) SU1248 2020-05-25 14:06:00
Balandino (CEK) - Sheremetyevo (SVO) SU1533 2020-05-25 10:53:00
Sheremetyevo (SVO) - Balandino (CEK) SU1532 2020-05-24 21:29:00
Orenburg (REN) - Sheremetyevo (SVO) SU1247 2020-05-23 08:45:00
Sheremetyevo (SVO) - Orenburg (REN) SU1246 2020-05-23 06:51:00
???? N/A 2020-05-22 17:35:00
Sheremetyevo (SVO) - Bolshoye Savino (PEE) SU1768 2020-05-18 13:54:00
GSV - Sheremetyevo (SVO) SU1357 2020-05-18 08:07:00
Sheremetyevo (SVO) - GSV SU1356 2020-05-18 06:52:00
Begishevo (NBC) - Sheremetyevo (SVO) SU1681 2020-05-17 16:00:00
Sheremetyevo (SVO) - Begishevo (NBC) SU1680 2020-05-17 14:26:00
Izhevsk Airport (IJK) - Sheremetyevo (SVO) SU1297 2020-05-17 09:21:00
Sheremetyevo (SVO) - Izhevsk Airport (IJK) SU1296 2020-05-17 07:32:00
Magnitogorsk (MQF) - Sheremetyevo (SVO) SU1435 2020-05-17 04:38:00
Sheremetyevo (SVO) - Magnitogorsk (MQF) SU1434 2020-05-16 15:21:00
Time Lat Lon Altitude Heading Speed Vertical Rate
2020-03-26 14:08:57 GMT 63.649944 40.133385 20,975 14 334 -1856
2020-03-26 14:08:50 GMT 63.639404 40.127140 21,200 14 335 -1856
2020-03-26 14:08:39 GMT 63.623749 40.117844 21,525 14 337 -1856
2020-03-26 14:08:30 GMT 63.608467 40.108776 21,850 14 338 -1856
2020-03-26 14:08:19 GMT 63.592636 40.099438 22,175 14 339 -1856
2020-03-26 14:08:09 GMT 63.578205 40.090981 22,475 14 341 -1920
2020-03-26 14:07:59 GMT 63.562775 40.081821 22,800 14 343 -1856
2020-03-26 14:07:48 GMT 63.546478 40.072208 23,125 14 344 -1856
2020-03-26 14:07:38 GMT 63.531235 40.063183 23,425 14 346 -1856
2020-03-26 14:07:28 GMT 63.513794 40.052982 23,800 14 347 -1856
2020-03-26 14:07:18 GMT 63.500015 40.044956 24,075 14 348 -1920
2020-03-26 14:07:08 GMT 63.483707 40.035389 24,425 14 350 -1984
2020-03-26 14:06:58 GMT 63.468109 40.026150 24,725 14 352 -1920
2020-03-26 14:06:48 GMT 63.452316 40.016853 25,050 14 353 -1920
2020-03-26 14:06:37 GMT 63.435802 40.007263 25,375 14 355 -1792
2020-03-26 14:06:28 GMT 63.419418 39.997704 25,700 14 357 -1984
2020-03-26 14:06:17 GMT 63.403542 39.988365 26,025 14 358 -1984
2020-03-26 14:06:07 GMT 63.387085 39.978722 26,375 14 360 -1856
2020-03-26 14:05:56 GMT 63.370491 39.969032 26,700 14 362 -1920
2020-03-26 14:05:47 GMT 63.354385 39.959801 27,025 14 363 -1984
2020-03-26 14:05:35 GMT 63.334877 39.948486 27,400 14 366 -1984
2020-03-26 14:05:27 GMT 63.321030 39.940372 27,675 14 367 -1984
2020-03-26 14:05:16 GMT 63.304642 39.930973 28,000 14 369 -2048
2020-03-26 14:05:06 GMT 63.287247 39.920937 28,350 14 370 -1920
2020-03-26 14:04:53 GMT 63.266098 39.908684 28,775 14 374 -1920
2020-03-26 14:04:46 GMT 63.254242 39.901920 29,000 14 374 -1984
2020-03-26 14:04:35 GMT 63.236023 39.891464 29,350 14 376 -1984
2020-03-26 14:04:26 GMT 63.219337 39.881908 29,675 14 379 -1920
2020-03-26 14:04:14 GMT 63.201180 39.871601 30,050 14 382 -1984
2020-03-26 14:04:05 GMT 63.184479 39.861958 30,375 14 384 -2112
2020-03-26 14:03:55 GMT 63.167496 39.852192 30,700 14 386 -1984
2020-03-26 14:03:44 GMT 63.149879 39.842129 31,050 14 389 -2048
2020-03-26 14:03:34 GMT 63.132385 39.832050 31,400 14 391 -2112
2020-03-26 14:03:25 GMT 63.114407 39.821743 31,750 14 393 -2112
2020-03-26 14:03:14 GMT 63.096390 39.811283 32,100 14 395 -2240
2020-03-26 14:03:04 GMT 63.078144 39.800827 32,475 14 397 -2112
2020-03-26 14:02:54 GMT 63.060379 39.790752 32,825 14 400 -2048
2020-03-26 14:02:43 GMT 63.042297 39.780376 33,175 14 402 -2496
2020-03-26 14:02:34 GMT 63.024261 39.770203 33,625 14 402 -2752
2020-03-26 14:02:23 GMT 63.004349 39.758808 34,125 14 402 -2304
2020-03-26 14:02:13 GMT 62.987183 39.749043 34,500 14 403 -2624
2020-03-26 14:02:03 GMT 62.969116 39.738712 34,875 14 403 -1088
2020-03-26 14:01:53 GMT 62.950871 39.728359 35,000 14 405 0
2020-03-26 14:01:43 GMT 62.932526 39.718018 35,000 14 404 -64
2020-03-26 14:01:33 GMT 62.913673 39.707546 35,000 14 403 -64
2020-03-26 14:01:22 GMT 62.895538 39.697266 35,025 14 402 0
2020-03-26 14:01:12 GMT 62.877644 39.687263 35,000 14 402 0
2020-03-26 14:01:02 GMT 62.859146 39.676819 35,000 14 403 0
2020-03-26 14:00:51 GMT 62.840378 39.666241 35,000 14 404 64
2020-03-26 14:00:41 GMT 62.822384 39.656101 35,000 14 405 -64
2020-03-26 14:00:32 GMT 62.804184 39.645855 35,000 14 405 -64
2020-03-26 14:00:21 GMT 62.785309 39.635418 35,000 14 404 0
2020-03-26 14:00:10 GMT 62.765762 39.624531 35,000 14 403 -64
2020-03-26 14:00:00 GMT 62.748413 39.614799 35,000 14 402 64
2020-03-26 13:59:50 GMT 62.730209 39.604656 35,000 14 402 0
2020-03-26 13:59:40 GMT 62.712242 39.594620 35,000 14 403 64
2020-03-26 13:59:30 GMT 62.692932 39.583843 35,000 14 403 0
2020-03-26 13:59:20 GMT 62.675034 39.573872 35,000 14 404 0
2020-03-26 13:59:10 GMT 62.657078 39.563881 35,000 14 404 -64
2020-03-26 13:59:00 GMT 62.639107 39.553951 35,000 14 404 0
2020-03-26 13:58:49 GMT 62.620163 39.543388 35,000 14 403 64
2020-03-26 13:58:39 GMT 62.602112 39.533489 35,000 14 403 -64
2020-03-26 13:58:29 GMT 62.583618 39.523315 35,000 14 403 0
2020-03-26 13:58:19 GMT 62.565697 39.513386 35,000 14 402 64
2020-03-26 13:58:08 GMT 62.546562 39.502823 35,000 14 402 0
2020-03-26 13:57:59 GMT 62.528870 39.493103 35,000 14 402 0
2020-03-26 13:57:48 GMT 62.510788 39.483234 35,000 14 401 0
2020-03-26 13:57:38 GMT 62.492477 39.473267 35,000 14 400 0
2020-03-26 13:57:28 GMT 62.474670 39.463604 35,000 14 398 0
2020-03-26 13:57:18 GMT 62.456497 39.453735 35,000 14 397 0
2020-03-26 13:57:08 GMT 62.437817 39.443665 35,000 14 396 -64
2020-03-26 13:56:58 GMT 62.420334 39.434101 35,000 14 395 0
2020-03-26 13:56:48 GMT 62.402435 39.424332 35,000 14 395 0
2020-03-26 13:56:38 GMT 62.383163 39.413860 35,000 14 396 0
2020-03-26 13:56:27 GMT 62.366592 39.404896 35,000 14 396 0
2020-03-26 13:56:17 GMT 62.347832 39.394650 35,000 14 397 0
2020-03-26 13:56:07 GMT 62.329861 39.384930 35,000 14 398 64
2020-03-26 13:55:56 GMT 62.311382 39.374893 35,000 14 400 0
2020-03-26 13:55:47 GMT 62.294220 39.365540 35,000 14 401 64
2020-03-26 13:55:36 GMT 62.276047 39.355774 35,000 14 402 -64
2020-03-26 13:55:26 GMT 62.257462 39.345703 35,000 14 402 0
2020-03-26 13:55:16 GMT 62.239288 39.335938 35,000 14 402 0
2020-03-26 13:55:06 GMT 62.221024 39.326172 35,000 14 400 0
2020-03-26 13:54:55 GMT 62.202255 39.316204 35,025 14 399 0
2020-03-26 13:54:45 GMT 62.184357 39.306641 35,000 14 399 64
2020-03-26 13:54:35 GMT 62.166000 39.296772 35,000 14 399 -64
2020-03-26 13:54:25 GMT 62.147984 39.287109 35,025 14 399 0
2020-03-26 13:54:15 GMT 62.129314 39.277142 35,025 14 401 128
2020-03-26 13:54:05 GMT 62.111671 39.267681 35,000 14 402 -64
2020-03-26 13:53:55 GMT 62.093491 39.257977 35,025 14 403 -64
2020-03-26 13:53:44 GMT 62.074848 39.248047 35,025 14 404 128
2020-03-26 13:53:35 GMT 62.056686 39.238258 35,000 14 405 64
2020-03-26 13:53:24 GMT 62.038010 39.228352 35,000 14 406 0
2020-03-26 13:53:14 GMT 62.019196 39.218346 35,000 14 407 0
2020-03-26 13:53:04 GMT 62.001297 39.208832 35,000 13 406 0
2020-03-26 13:52:53 GMT 61.982346 39.198826 35,000 13 406 0
2020-03-26 13:52:44 GMT 61.964474 39.189350 35,000 13 406 64
2020-03-26 13:52:34 GMT 61.945759 39.179585 35,000 13 404 -128
2020-03-26 13:52:23 GMT 61.927094 39.169792 35,000 13 403 -64
2020-03-26 13:52:13 GMT 61.909332 39.160473 35,025 13 401 64
2020-03-26 13:52:03 GMT 61.890827 39.150696 35,000 13 401 64
2020-03-26 13:51:52 GMT 61.871979 39.140854 35,000 13 401 0
2020-03-26 13:51:42 GMT 61.853760 39.131241 35,000 13 402 64
2020-03-26 13:51:33 GMT 61.835861 39.121922 35,000 13 404 0
2020-03-26 13:51:22 GMT 61.817551 39.112309 35,000 13 404 -64
2020-03-26 13:51:12 GMT 61.799332 39.102795 35,000 13 404 0
2020-03-26 13:51:02 GMT 61.780380 39.092888 35,000 13 403 0
2020-03-26 13:50:51 GMT 61.762016 39.083355 35,000 13 403 0
2020-03-26 13:50:41 GMT 61.743713 39.073757 35,000 13 403 -64
2020-03-26 13:50:32 GMT 61.725800 39.064434 35,000 14 405 0
2020-03-26 13:50:21 GMT 61.707272 39.054768 35,025 13 406 64
2020-03-26 13:50:11 GMT 61.688278 39.044800 35,000 13 406 0
2020-03-26 13:50:01 GMT 61.670311 39.035442 35,000 13 406 0
2020-03-26 13:49:50 GMT 61.651108 39.025398 35,000 14 408 0
2020-03-26 13:49:40 GMT 61.632706 39.015785 35,000 13 410 -64
2020-03-26 13:49:31 GMT 61.614487 39.006271 35,000 13 409 64
2020-03-26 13:49:20 GMT 61.595779 38.996582 35,000 13 410 0
2020-03-26 13:49:09 GMT 61.575394 38.986160 35,000 13 410 -64
2020-03-26 13:49:00 GMT 61.558548 38.977627 35,000 13 410 0
2020-03-26 13:48:50 GMT 61.539684 38.968304 35,025 12 409 64
2020-03-26 13:48:39 GMT 61.520370 38.959187 35,000 12 408 0
2020-03-26 13:48:30 GMT 61.501968 38.950947 35,000 12 407 -64
2020-03-26 13:48:19 GMT 61.483566 38.942707 35,000 12 406 64
2020-03-26 13:48:09 GMT 61.464523 38.934273 35,000 12 406 0
2020-03-26 13:47:59 GMT 61.446259 38.926128 35,000 11 406 -64
2020-03-26 13:47:48 GMT 61.427261 38.917744 35,025 11 405 0
2020-03-26 13:47:38 GMT 61.408813 38.909554 35,000 11 404 64
2020-03-26 13:47:29 GMT 61.390686 38.901508 35,000 11 404 -64
2020-03-26 13:47:18 GMT 61.371735 38.893169 35,000 11 404 64
2020-03-26 13:47:08 GMT 61.352871 38.884785 35,000 11 405 64
2020-03-26 13:46:58 GMT 61.334473 38.876694 35,000 11 406 0
2020-03-26 13:46:48 GMT 61.316299 38.868649 35,000 11 406 -64
2020-03-26 13:46:37 GMT 61.297531 38.860310 35,000 11 406 0
2020-03-26 13:46:28 GMT 61.278198 38.851826 35,000 11 405 64
2020-03-26 13:46:17 GMT 61.260361 38.844028 35,000 11 405 64
2020-03-26 13:46:07 GMT 61.241592 38.835690 35,000 11 405 0
2020-03-26 13:45:57 GMT 61.222778 38.827450 35,000 11 405 0
2020-03-26 13:45:47 GMT 61.204559 38.819405 35,000 12 406 64
2020-03-26 13:45:37 GMT 61.185047 38.810833 35,000 12 407 -64
2020-03-26 13:45:26 GMT 61.166615 38.802692 35,025 12 407 -128
2020-03-26 13:45:16 GMT 61.148087 38.794659 35,025 11 408 64
2020-03-26 13:45:06 GMT 61.129559 38.786518 35,000 11 409 -64
2020-03-26 13:44:56 GMT 61.110844 38.778278 35,000 11 409 0
2020-03-26 13:44:45 GMT 61.091354 38.769772 35,025 11 409 64
2020-03-26 13:44:36 GMT 61.072632 38.761532 35,000 12 412 64
2020-03-26 13:44:25 GMT 61.054096 38.753460 35,000 12 413 -64
2020-03-26 13:44:15 GMT 61.035244 38.745247 35,000 11 414 -128
2020-03-26 13:44:05 GMT 61.015778 38.736752 35,000 11 413 128
2020-03-26 13:43:54 GMT 60.996552 38.728416 35,000 11 413 0
2020-03-26 13:43:44 GMT 60.977142 38.719990 35,000 11 413 0
2020-03-26 13:43:35 GMT 60.959381 38.712315 35,000 11 412 64
2020-03-26 13:43:24 GMT 60.939926 38.703983 35,000 11 411 -64
2020-03-26 13:43:14 GMT 60.921387 38.695930 35,025 11 411 0
2020-03-26 13:43:04 GMT 60.902252 38.687691 35,000 11 411 0
2020-03-26 13:42:54 GMT 60.884090 38.679920 35,000 11 411 128
2020-03-26 13:42:43 GMT 60.864536 38.671482 35,000 11 412 64
2020-03-26 13:42:34 GMT 60.845123 38.663162 35,000 11 412 -64
2020-03-26 13:42:23 GMT 60.826126 38.655018 35,000 11 412 64
2020-03-26 13:42:13 GMT 60.807770 38.647156 35,000 11 411 -64
2020-03-26 13:42:02 GMT 60.788284 38.638817 35,025 11 411 0
2020-03-26 13:41:52 GMT 60.769802 38.630970 35,025 11 412 128
2020-03-26 13:41:43 GMT 60.751053 38.622910 35,000 11 413 64
2020-03-26 13:41:32 GMT 60.731537 38.614590 35,000 11 414 -128
2020-03-26 13:41:22 GMT 60.713150 38.606743 35,000 11 415 0
2020-03-26 13:41:12 GMT 60.693645 38.598503 35,000 11 414 0
2020-03-26 13:41:01 GMT 60.674835 38.590458 35,000 11 414 0
2020-03-26 13:40:51 GMT 60.655289 38.582184 35,000 11 415 0
2020-03-26 13:40:42 GMT 60.636429 38.574135 35,025 11 415 -64
2020-03-26 13:40:31 GMT 60.618042 38.566326 35,025 11 415 128
2020-03-26 13:40:21 GMT 60.598572 38.558033 35,025 11 415 64
2020-03-26 13:40:11 GMT 60.579391 38.549889 35,025 11 416 64
2020-03-26 13:40:01 GMT 60.560669 38.541931 35,000 11 416 -64
2020-03-26 13:39:50 GMT 60.540985 38.533600 35,000 11 416 64
2020-03-26 13:39:41 GMT 60.521988 38.525642 35,000 11 415 0
2020-03-26 13:39:30 GMT 60.502579 38.517403 35,000 11 414 0
2020-03-26 13:39:20 GMT 60.484020 38.509628 35,000 11 413 -64
2020-03-26 13:39:10 GMT 60.465317 38.501869 35,000 11 412 128
2020-03-26 13:39:00 GMT 60.446499 38.493935 35,000 11 411 0
2020-03-26 13:38:49 GMT 60.427094 38.485867 35,000 11 410 -64
2020-03-26 13:38:40 GMT 60.408463 38.478004 35,000 11 410 -64
2020-03-26 13:38:29 GMT 60.389751 38.470196 35,000 11 409 -64
2020-03-26 13:38:19 GMT 60.371338 38.462566 35,000 11 409 0
2020-03-26 13:38:08 GMT 60.351837 38.454422 35,000 11 409 64
2020-03-26 13:37:58 GMT 60.332153 38.446182 35,000 11 410 -128
2020-03-26 13:37:48 GMT 60.314621 38.438889 35,025 11 409 128
2020-03-26 13:37:39 GMT 60.296036 38.431122 35,000 11 409 0
2020-03-26 13:37:28 GMT 60.277142 38.423309 35,000 11 410 64
2020-03-26 13:37:18 GMT 60.258427 38.415562 35,000 11 411 -64
2020-03-26 13:37:08 GMT 60.239182 38.407539 35,025 11 410 64
2020-03-26 13:36:58 GMT 60.220673 38.399864 35,000 11 410 64
2020-03-26 13:36:47 GMT 60.201214 38.391823 35,000 11 411 0
2020-03-26 13:36:38 GMT 60.182919 38.384171 35,000 11 410 -128
2020-03-26 13:36:27 GMT 60.164253 38.376518 35,000 11 411 128
2020-03-26 13:36:17 GMT 60.145210 38.368572 35,000 11 412 0
2020-03-26 13:36:07 GMT 60.125931 38.360661 35,025 11 412 -64
2020-03-26 13:35:56 GMT 60.106705 38.352798 35,025 11 411 0
2020-03-26 13:35:47 GMT 60.088467 38.345325 35,000 11 410 192
2020-03-26 13:35:37 GMT 60.069241 38.337479 34,975 11 410 -64
2020-03-26 13:35:26 GMT 60.050858 38.329971 35,000 11 410 -128
2020-03-26 13:35:18 GMT 60.033951 38.323158 35,025 11 404 -64
2020-03-26 13:35:06 GMT 60.013096 38.314625 35,000 11 404 -64
2020-03-26 13:34:56 GMT 59.995033 38.307266 35,025 11 404 128
2020-03-26 13:34:45 GMT 59.976089 38.299519 35,000 11 405 0
2020-03-26 13:34:36 GMT 59.957474 38.291901 35,000 11 407 128
2020-03-26 13:34:25 GMT 59.938293 38.284058 35,000 11 409 -64
2020-03-26 13:34:15 GMT 59.919617 38.276459 35,000 11 410 64
2020-03-26 13:34:05 GMT 59.900848 38.268860 35,000 11 411 0
2020-03-26 13:33:55 GMT 59.881401 38.260929 35,000 11 412 -64
2020-03-26 13:33:44 GMT 59.861755 38.252930 35,025 11 412 0
2020-03-26 13:33:34 GMT 59.843647 38.245586 35,025 11 412 0
2020-03-26 13:33:23 GMT 59.824280 38.237820 35,025 11 412 -64
2020-03-26 13:33:14 GMT 59.806229 38.230499 35,000 11 412 64
2020-03-26 13:33:03 GMT 59.786728 38.222626 35,000 11 413 -64
2020-03-26 13:32:54 GMT 59.767208 38.214806 35,000 11 412 0
2020-03-26 13:32:43 GMT 59.748680 38.207325 35,000 11 412 -64
2020-03-26 13:32:33 GMT 59.730015 38.199841 35,000 11 411 0
2020-03-26 13:32:22 GMT 59.710648 38.192078 35,000 11 411 -64
2020-03-26 13:32:12 GMT 59.691467 38.184402 35,000 11 411 0
2020-03-26 13:32:03 GMT 59.672985 38.177017 35,000 11 411 0
2020-03-26 13:31:52 GMT 59.653885 38.169434 35,000 11 412 0
2020-03-26 13:31:42 GMT 59.634720 38.161770 35,000 11 412 0
2020-03-26 13:31:32 GMT 59.616283 38.154381 35,000 11 412 -64
2020-03-26 13:31:22 GMT 59.597618 38.146996 35,000 11 412 0
2020-03-26 13:31:11 GMT 59.578171 38.139221 35,000 11 413 64
2020-03-26 13:31:02 GMT 59.559586 38.131840 35,000 11 414 -64
2020-03-26 13:30:51 GMT 59.539848 38.124073 35,000 11 415 0
2020-03-26 13:30:40 GMT 59.520493 38.116333 35,025 11 415 64
2020-03-26 13:30:31 GMT 59.501816 38.109009 35,000 11 416 0
2020-03-26 13:30:20 GMT 59.482121 38.101154 35,000 11 418 0
2020-03-26 13:30:10 GMT 59.462357 38.093353 35,000 11 419 0
2020-03-26 13:30:01 GMT 59.444740 38.086475 35,000 11 419 0
2020-03-26 13:29:50 GMT 59.424683 38.078613 35,000 11 418 -64
2020-03-26 13:29:40 GMT 59.406006 38.071289 35,000 11 417 -64
2020-03-26 13:29:30 GMT 59.386829 38.063744 35,000 11 416 0
2020-03-26 13:29:20 GMT 59.367966 38.056274 35,000 11 415 -64
2020-03-26 13:29:10 GMT 59.348701 38.048683 35,000 11 415 -64
2020-03-26 13:28:59 GMT 59.328461 38.040436 35,025 11 415 64
2020-03-26 13:28:49 GMT 59.310112 38.033340 35,000 9 415 64
2020-03-26 13:28:39 GMT 59.291336 38.027527 35,000 7 414 -64
2020-03-26 13:28:29 GMT 59.272202 38.023499 35,000 4 412 0
2020-03-26 13:28:18 GMT 59.252106 38.021030 35,000 2 410 0
2020-03-26 13:28:09 GMT 59.233429 38.020386 35,000 0 409 64
2020-03-26 13:27:58 GMT 59.213421 38.020462 35,000 0 409 0
2020-03-26 13:27:52 GMT 59.203552 38.020462 35,000 0 409 -64
2020-03-26 13:27:47 GMT 59.194427 38.020477 35,000 0 409 64
2020-03-26 13:27:42 GMT 59.182743 38.020462 35,000 0 410 0
2020-03-26 13:27:37 GMT 59.175568 38.020477 35,000 0 410 0
2020-03-26 13:27:32 GMT 59.165100 38.020557 35,000 0 410 -128
2020-03-26 13:27:26 GMT 59.154739 38.020569 35,025 0 410 0
2020-03-26 13:27:17 GMT 59.134655 38.020557 35,000 0 411 -128
2020-03-26 13:27:07 GMT 59.117569 38.020569 35,000 0 412 -64
2020-03-26 13:26:57 GMT 59.098438 38.020653 35,025 0 412 64
2020-03-26 13:26:50 GMT 59.085777 38.020653 35,000 0 413 0
2020-03-26 13:26:47 GMT 59.079121 38.020653 35,000 0 413 -64
2020-03-26 13:26:40 GMT 59.066254 38.020660 35,000 0 414 0
2020-03-26 13:26:36 GMT 59.057922 38.020660 35,000 0 414 0
2020-03-26 13:26:30 GMT 59.048161 38.020653 35,000 0 415 0
2020-03-26 13:26:26 GMT 59.040115 38.020752 35,000 0 415 -64
2020-03-26 13:26:21 GMT 59.028797 38.020744 35,025 0 416 0
2020-03-26 13:26:15 GMT 59.019150 38.020752 35,000 0 416 0
2020-03-26 13:26:10 GMT 59.008484 38.020752 35,000 0 416 128
2020-03-26 13:26:04 GMT 58.997932 38.020744 35,000 0 416 0
2020-03-26 13:26:00 GMT 58.989506 38.020744 35,000 0 416 0
2020-03-26 13:25:55 GMT 58.980972 38.020752 35,000 0 416 -192
2020-03-26 13:25:45 GMT 58.959869 38.020844 35,025 0 416 -128
2020-03-26 13:25:40 GMT 58.948837 38.020844 35,025 0 415 128
2020-03-26 13:25:35 GMT 58.942017 38.020844 35,025 0 415 128
2020-03-26 13:25:29 GMT 58.930710 38.020840 35,000 0 415 64
2020-03-26 13:25:25 GMT 58.923019 38.020844 35,000 0 415 -64
2020-03-26 13:25:18 GMT 58.910416 38.020840 35,000 0 416 0
2020-03-26 13:25:13 GMT 58.899536 38.020844 35,000 0 416 -64
2020-03-26 13:25:08 GMT 58.891113 38.020844 35,025 0 416 128
2020-03-26 13:25:03 GMT 58.881367 38.020840 35,000 0 416 64
2020-03-26 13:24:58 GMT 58.871124 38.020840 35,000 0 416 64
2020-03-26 13:24:55 GMT 58.862652 38.020840 35,000 0 416 0
2020-03-26 13:24:48 GMT 58.851757 38.020840 35,000 0 417 64
2020-03-26 13:24:44 GMT 58.844604 38.020847 35,000 0 418 -192
2020-03-26 13:24:37 GMT 58.830112 38.020844 35,025 0 417 -128
2020-03-26 13:24:33 GMT 58.824013 38.020844 35,025 0 416 -64
2020-03-26 13:24:28 GMT 58.811783 38.020935 35,025 0 415 128
2020-03-26 13:24:24 GMT 58.805161 38.020935 35,025 0 415 128
2020-03-26 13:24:15 GMT 58.786213 38.020935 35,000 0 415 64
2020-03-26 13:24:07 GMT 58.773056 38.021023 35,000 0 416 0
2020-03-26 13:24:04 GMT 58.767498 38.021027 35,000 0 416 -64
2020-03-26 13:23:56 GMT 58.752640 38.021202 35,000 0 416 -64
2020-03-26 13:23:53 GMT 58.745956 38.021290 35,000 0 416 -128
2020-03-26 13:23:47 GMT 58.733093 38.021465 35,000 0 416 -64
2020-03-26 13:23:43 GMT 58.726959 38.021557 35,025 0 416 -128
2020-03-26 13:23:35 GMT 58.712952 38.020935 35,025 2 417 192
2020-03-26 13:23:32 GMT 58.706421 38.020294 35,000 3 417 128
2020-03-26 13:23:23 GMT 58.687271 38.016949 35,000 6 421 -64
2020-03-26 13:23:16 GMT 58.674812 38.013611 35,000 9 423 -64
2020-03-26 13:23:11 GMT 58.665710 38.010571 35,000 10 424 -64
2020-03-26 13:23:06 GMT 58.655045 38.006317 35,000 12 424 64
2020-03-26 13:23:02 GMT 58.648560 38.003448 35,000 14 424 0
2020-03-26 13:22:55 GMT 58.635086 37.996746 35,000 14 424 -128
2020-03-26 13:22:52 GMT 58.629379 37.993835 35,000 14 424 0
2020-03-26 13:22:45 GMT 58.615551 37.986969 35,025 14 423 0
2020-03-26 13:22:41 GMT 58.609688 37.983948 35,025 14 423 128
2020-03-26 13:22:32 GMT 58.590229 37.974243 35,000 14 424 64
2020-03-26 13:22:23 GMT 58.572582 37.965363 35,000 14 425 0
2020-03-26 13:22:14 GMT 58.556763 37.957409 35,000 14 425 0
2020-03-26 13:22:11 GMT 58.551590 37.954834 35,000 14 426 0
2020-03-26 13:22:03 GMT 58.537582 37.947842 35,000 14 426 0
2020-03-26 13:22:00 GMT 58.531616 37.944855 35,000 14 426 0
2020-03-26 13:21:53 GMT 58.518494 37.938271 35,000 14 426 -64
2020-03-26 13:21:50 GMT 58.512577 37.935333 35,025 14 426 0
2020-03-26 13:21:44 GMT 58.492813 37.925514 35,000 14 426 64
2020-03-26 13:21:40 GMT 58.492813 37.925514 35,000 14 426 0
2020-03-26 13:21:33 GMT 58.479263 37.918781 35,000 14 426 -64
2020-03-26 13:21:30 GMT 58.474125 37.916199 35,000 14 426 64
2020-03-26 13:21:20 GMT 58.454086 37.906200 35,000 14 425 -64
2020-03-26 13:21:11 GMT 58.437584 37.897980 35,000 14 425 0
2020-03-26 13:21:00 GMT 58.414120 37.886353 35,000 14 424 64
2020-03-26 13:20:51 GMT 58.399109 37.878910 35,000 14 424 -64
2020-03-26 13:20:41 GMT 58.380157 37.869518 35,000 14 424 128
2020-03-26 13:20:30 GMT 58.359375 37.859241 35,000 14 424 -128
2020-03-26 13:20:19 GMT 58.337677 37.848522 35,025 14 424 -64
2020-03-26 13:20:10 GMT 58.321762 37.840668 35,000 14 423 0
2020-03-26 13:20:00 GMT 58.304077 37.831951 35,000 14 423 -64
2020-03-26 13:19:50 GMT 58.283340 37.821766 35,000 14 423 -64
2020-03-26 13:19:40 GMT 58.265350 37.812904 35,000 14 423 64
2020-03-26 13:19:30 GMT 58.245880 37.803314 35,000 14 422 64
2020-03-26 13:19:10 GMT 58.206497 37.783997 35,000 14 422 64
2020-03-26 13:18:23 GMT 58.119446 37.741425 35,000 14 422 -64
2020-03-26 13:18:18 GMT 58.110554 37.737122 35,000 14 422 0
2020-03-26 13:18:02 GMT 58.081146 37.722797 35,000 14 422 -128
2020-03-26 13:17:54 GMT 58.064327 37.714600 35,025 14 421 128
2020-03-26 13:17:36 GMT 58.031662 37.698788 35,000 14 421 -128
2020-03-26 13:17:27 GMT 58.013863 37.690155 35,000 14 422 0
2020-03-26 13:17:16 GMT 57.992935 37.680092 35,000 14 422 0
2020-03-26 13:17:06 GMT 57.974945 37.671322 35,000 14 423 -64
2020-03-26 13:16:56 GMT 57.955856 37.662106 35,000 14 424 64
2020-03-26 13:16:45 GMT 57.935852 37.652451 35,000 14 425 0
2020-03-26 13:16:36 GMT 57.916801 37.643280 35,025 14 426 128
2020-03-26 13:16:25 GMT 57.896786 37.633575 35,025 14 426 128
2020-03-26 13:16:15 GMT 57.877579 37.624363 35,000 14 428 0
2020-03-26 13:16:04 GMT 57.858124 37.614971 35,000 14 429 64
2020-03-26 13:15:54 GMT 57.837757 37.605194 35,000 14 430 0
2020-03-26 13:15:44 GMT 57.817841 37.595657 35,000 14 430 64
2020-03-26 13:15:33 GMT 57.797909 37.586060 35,000 14 429 -64
2020-03-26 13:15:24 GMT 57.778519 37.576786 35,000 14 429 -64
2020-03-26 13:15:13 GMT 57.758759 37.567383 35,000 14 429 64
2020-03-26 13:15:03 GMT 57.739471 37.558182 35,000 14 429 64
2020-03-26 13:14:52 GMT 57.719788 37.548779 35,000 14 429 0
2020-03-26 13:14:43 GMT 57.699875 37.539337 35,000 14 429 0
2020-03-26 13:14:32 GMT 57.681061 37.530415 35,000 14 428 -64
2020-03-26 13:14:22 GMT 57.661186 37.520969 35,000 14 430 0
2020-03-26 13:14:11 GMT 57.621708 37.502186 35,000 14 430 0
2020-03-26 13:14:02 GMT 57.621708 37.502186 35,000 14 428 192
2020-03-26 13:13:51 GMT 57.602112 37.492882 35,000 14 430 0
2020-03-26 13:13:40 GMT 57.582001 37.483376 35,000 14 430 0
2020-03-26 13:13:30 GMT 57.562260 37.474098 35,000 14 430 64
2020-03-26 13:13:20 GMT 57.542244 37.464619 35,000 14 430 -64
2020-03-26 13:13:10 GMT 57.522972 37.455494 35,000 14 430 -64
2020-03-26 13:12:58 GMT 57.499695 37.444508 35,025 14 429 128
2020-03-26 13:12:50 GMT 57.483353 37.436855 35,000 14 428 128
2020-03-26 13:12:38 GMT 57.462315 37.426964 35,000 14 429 -256
2020-03-26 13:12:29 GMT 57.443893 37.418320 35,025 14 428 -64
2020-03-26 13:12:19 GMT 57.424747 37.409332 35,025 14 427 128
2020-03-26 13:12:09 GMT 57.404636 37.399940 35,000 14 428 64
2020-03-26 13:11:57 GMT 57.384476 37.390511 34,975 14 429 128
2020-03-26 13:11:47 GMT 57.364880 37.381336 34,875 14 430 1088
2020-03-26 13:11:37 GMT 57.344444 37.371765 34,675 14 430 1216
2020-03-26 13:11:28 GMT 57.326569 37.363438 34,500 14 430 1280
2020-03-26 13:11:16 GMT 57.305431 37.353603 34,250 14 430 1280
2020-03-26 13:11:07 GMT 57.286926 37.345016 34,075 14 431 1088
2020-03-26 13:10:57 GMT 57.266979 37.335709 33,875 14 431 1088
2020-03-26 13:10:46 GMT 57.247566 37.326759 33,700 14 430 960
2020-03-26 13:10:37 GMT 57.227783 37.317543 33,525 14 430 1088
2020-03-26 13:10:26 GMT 57.207916 37.308369 33,325 14 429 1408
2020-03-26 13:10:15 GMT 57.188049 37.299187 33,100 14 430 1280
2020-03-26 13:10:05 GMT 57.168056 37.289902 32,875 14 430 1472
2020-03-26 13:09:56 GMT 57.149109 37.281219 32,625 14 430 1408
2020-03-26 13:09:44 GMT 57.128162 37.271473 32,375 14 430 1344
2020-03-26 13:09:35 GMT 57.109402 37.262878 32,150 14 430 1408
2020-03-26 13:09:24 GMT 57.089401 37.253696 31,900 14 430 1792
2020-03-26 13:09:14 GMT 57.069508 37.244537 31,575 14 432 1792
2020-03-26 13:09:04 GMT 57.050140 37.235592 31,300 14 433 1664
2020-03-26 13:08:53 GMT 57.029663 37.226231 31,000 14 435 1600
2020-03-26 13:08:42 GMT 57.007187 37.215927 30,725 13 434 1216
2020-03-26 13:08:33 GMT 56.969139 37.198467 30,450 14 430 1344
2020-03-26 13:08:22 GMT 56.969139 37.198467 30,325 14 430 1344
2020-03-26 13:08:12 GMT 56.948891 37.189251 30,075 14 429 1600
2020-03-26 13:08:02 GMT 56.929642 37.180481 29,800 14 428 1600
2020-03-26 13:07:51 GMT 56.907551 37.170380 29,525 14 427 1408
2020-03-26 13:07:41 GMT 56.890232 37.162495 29,300 14 425 1472
2020-03-26 13:07:31 GMT 56.870914 37.153633 29,050 14 424 1664
2020-03-26 13:07:20 GMT 56.849808 37.144089 28,725 13 423 1664
2020-03-26 13:07:10 GMT 56.830124 37.135162 28,450 13 422 1728
2020-03-26 13:07:00 GMT 56.812305 37.127056 28,175 14 421 1792
2020-03-26 13:06:49 GMT 56.792519 37.118107 27,875 13 420 1664
2020-03-26 13:06:40 GMT 56.774048 37.109673 27,600 13 418 1600
2020-03-26 13:06:30 GMT 56.754349 37.100830 27,325 13 416 1536
2020-03-26 13:06:19 GMT 56.735260 37.092148 27,075 14 413 1728
2020-03-26 13:06:12 GMT 56.716034 37.083466 26,775 13 412 1728
2020-03-26 13:05:59 GMT 56.697971 37.075314 26,475 13 410 1728
2020-03-26 13:05:49 GMT 56.678925 37.066753 26,200 13 407 1664
2020-03-26 13:05:38 GMT 56.660110 37.058346 25,900 13 404 1536
2020-03-26 13:05:30 GMT 56.645691 37.051823 25,675 13 402 1344
2020-03-26 13:05:27 GMT 56.641342 37.049847 25,675 13 402 1344
2020-03-26 13:05:21 GMT 56.627655 37.043755 25,475 13 399 1408
2020-03-26 13:05:17 GMT 56.622139 37.041203 25,450 13 398 1408
2020-03-26 13:05:08 GMT 56.604450 37.033230 25,125 13 394 1920
2020-03-26 13:04:57 GMT 56.586411 37.025173 24,850 13 393 1984
2020-03-26 13:04:47 GMT 56.568970 37.017265 24,325 13 389 2048
2020-03-26 13:04:43 GMT 56.562645 37.014484 24,325 13 389 2048
2020-03-26 13:04:40 GMT 56.555786 37.011356 24,175 13 390 2112
2020-03-26 13:04:36 GMT 56.550568 37.009029 24,075 13 389 2112
2020-03-26 13:04:32 GMT 56.541138 37.004787 23,900 14 388 2048
2020-03-26 13:04:29 GMT 56.535736 37.002369 23,775 14 388 1920
2020-03-26 13:04:26 GMT 56.533081 37.001122 23,725 14 387 1920
2020-03-26 13:04:19 GMT 56.520721 36.995628 23,450 13 386 2176
2020-03-26 13:04:16 GMT 56.515503 36.993214 23,400 13 385 2112
2020-03-26 13:04:09 GMT 56.503151 36.987705 23,100 13 384 1984
2020-03-26 13:04:05 GMT 56.497334 36.985130 23,025 13 383 1984
2020-03-26 13:03:58 GMT 56.483688 36.979065 22,775 13 381 2112
2020-03-26 13:03:54 GMT 56.478424 36.976734 22,650 13 381 2240
2020-03-26 13:03:48 GMT 56.466190 36.971313 22,400 13 378 2368
2020-03-26 13:03:45 GMT 56.462219 36.969578 22,300 13 378 2368
2020-03-26 13:03:42 GMT 56.457203 36.967361 22,175 13 378 2112
2020-03-26 13:03:38 GMT 56.451004 36.964664 22,000 13 377 2176
2020-03-26 13:03:35 GMT 56.445099 36.962128 21,925 13 377 2240
2020-03-26 13:03:32 GMT 56.439514 36.959641 21,800 13 374 2560
2020-03-26 13:03:28 GMT 56.433380 36.957092 21,600 13 374 2560
2020-03-26 13:03:24 GMT 56.427410 36.954575 21,500 12 374 2496
2020-03-26 13:03:21 GMT 56.421844 36.952267 21,375 12 374 2432
2020-03-26 13:03:18 GMT 56.410278 36.947708 21,200 12 373 2112
2020-03-26 13:03:15 GMT 56.410278 36.947708 21,100 12 373 1984
2020-03-26 13:03:10 GMT 56.404129 36.945358 20,975 11 371 1984
2020-03-26 13:03:06 GMT 56.396034 36.942387 20,875 11 370 1984
2020-03-26 13:03:02 GMT 56.387375 36.939449 20,650 9 366 1984
2020-03-26 13:02:58 GMT 56.381332 36.937618 20,525 9 365 1792
2020-03-26 13:02:51 GMT 56.371857 36.935036 20,275 7 360 1856
2020-03-26 13:02:47 GMT 56.365498 36.933632 20,150 5 358 1728
2020-03-26 13:02:44 GMT 56.360237 36.932690 20,150 5 358 1728
2020-03-26 13:02:40 GMT 56.353905 36.931915 19,900 1 354 1216
2020-03-26 13:02:37 GMT 56.348145 36.931541 20,000 0 352 1088
2020-03-26 13:02:34 GMT 56.342407 36.931744 19,900 357 346 1472
2020-03-26 13:02:30 GMT 56.337658 36.932343 19,750 353 342 2240
2020-03-26 13:02:25 GMT 56.329926 36.934036 19,725 352 340 2240
2020-03-26 13:02:20 GMT 56.319855 36.937119 19,425 351 338 2304
2020-03-26 13:02:15 GMT 56.305984 36.941360 19,175 351 335 2368
2020-03-26 13:02:10 GMT 56.305984 36.941360 18,900 351 334 2304
2020-03-26 13:02:07 GMT 56.300491 36.943027 18,950 351 333 2368
2020-03-26 13:02:02 GMT 56.294365 36.944962 18,775 351 332 2240
2020-03-26 13:01:59 GMT 56.290466 36.946106 18,700 351 332 2304
2020-03-26 13:01:55 GMT 56.283379 36.948311 18,500 351 331 2368
2020-03-26 13:01:51 GMT 56.276962 36.950184 18,350 351 332 2432
2020-03-26 13:01:48 GMT 56.271469 36.951767 18,200 351 331 2240
2020-03-26 13:01:45 GMT 56.267899 36.952847 18,100 351 331 2368
2020-03-26 13:01:41 GMT 56.263092 36.954262 17,975 351 330 2304
2020-03-26 13:01:38 GMT 56.258614 36.955521 17,850 351 330 2240
2020-03-26 13:01:34 GMT 56.251328 36.957676 17,675 351 331 2240
2020-03-26 13:01:29 GMT 56.244087 36.959724 17,325 351 332 2304
2020-03-26 13:01:24 GMT 56.236919 36.961784 17,325 351 331 2368
2020-03-26 13:01:20 GMT 56.229996 36.963833 17,150 351 329 2304
2020-03-26 13:01:12 GMT 56.217831 36.967278 16,825 352 326 2304
2020-03-26 13:01:08 GMT 56.213177 36.968479 16,725 352 326 2304
2020-03-26 13:01:04 GMT 56.206429 36.970367 16,525 352 325 2304
2020-03-26 13:01:00 GMT 56.198654 36.972427 16,325 352 324 2304
2020-03-26 13:00:51 GMT 56.182362 36.976631 15,950 352 322 2368
2020-03-26 13:00:47 GMT 56.182362 36.976631 15,900 352 322 2304
2020-03-26 13:00:44 GMT 56.176392 36.978149 15,725 352 322 2304
2020-03-26 13:00:40 GMT 56.171978 36.979294 15,575 352 321 2304
2020-03-26 13:00:37 GMT 56.165230 36.981010 13,225 352 314 2368
2020-03-26 13:00:31 GMT 56.157314 36.983070 15,250 352 320 2304
2020-03-26 13:00:26 GMT 56.150612 36.984787 15,150 352 320 2304
2020-03-26 13:00:23 GMT 56.146362 36.985889 14,950 352 318 2304
2020-03-26 13:00:19 GMT 56.141300 36.987274 14,775 352 316 2368
2020-03-26 13:00:16 GMT 56.136318 36.988647 13,225 352 314 2368
2020-03-26 13:00:13 GMT 56.131393 36.989967 14,525 351 304 2048
2020-03-26 13:00:08 GMT 56.125351 36.991634 13,875 351 311 2176
2020-03-26 13:00:02 GMT 56.116673 36.994144 14,150 351 312 2112
2020-03-26 12:59:59 GMT 56.110291 36.995960 14,000 351 311 1984
2020-03-26 12:59:56 GMT 56.107269 36.996876 13,925 351 310 1984
2020-03-26 12:59:50 GMT 56.098286 36.999462 13,200 351 307 2048
2020-03-26 12:59:45 GMT 56.092003 37.001350 13,575 351 307 2048
2020-03-26 12:59:42 GMT 56.087723 37.002537 13,450 351 305 2048
2020-03-26 12:59:39 GMT 56.084183 37.003586 13,375 351 304 2048
2020-03-26 12:59:35 GMT 56.077103 37.005615 13,200 352 303 1984
2020-03-26 12:59:31 GMT 56.071564 37.007191 13,075 351 302 2048
2020-03-26 12:59:22 GMT 56.059788 37.010536 12,775 351 300 2048
2020-03-26 12:59:18 GMT 56.055038 37.011940 12,525 351 299 1920
2020-03-26 12:59:15 GMT 56.050507 37.013187 12,550 351 299 1920
2020-03-26 12:59:12 GMT 56.045544 37.014656 12,425 351 297 1984
2020-03-26 12:59:09 GMT 56.041443 37.015770 12,300 352 296 2368
2020-03-26 12:59:01 GMT 56.031738 37.018517 11,700 352 295 3136
2020-03-26 12:58:58 GMT 56.027527 37.019680 10,975 352 296 3072
2020-03-26 12:58:53 GMT 56.021347 37.021347 9,600 330 254 2752
2020-03-26 12:58:50 GMT 56.017090 37.022594 11,475 352 295 3072
2020-03-26 12:58:47 GMT 56.012676 37.023754 11,300 352 294 2944
2020-03-26 12:58:44 GMT 56.007339 37.025257 10,775 351 293 2624
2020-03-26 12:58:39 GMT 56.001503 37.026932 10,925 351 291 2112
2020-03-26 12:58:36 GMT 55.998825 37.027672 10,850 351 291 2048
2020-03-26 12:58:31 GMT 55.990540 37.030087 10,650 351 284 1088
2020-03-26 12:58:27 GMT 55.987015 37.031166 10,600 350 278 1088
2020-03-26 12:58:20 GMT 55.977112 37.034485 10,450 349 269 2048
2020-03-26 12:58:17 GMT 55.974087 37.035599 10,375 348 265 2496
2020-03-26 12:58:13 GMT 55.969254 37.037575 10,200 342 259 2752
2020-03-26 12:58:10 GMT 55.964077 37.039890 10,000 343 259 2752
2020-03-26 12:58:06 GMT 55.960785 37.041737 9,225 339 258 2752
2020-03-26 12:58:03 GMT 55.957901 37.043652 9,225 339 258 2752
2020-03-26 12:58:00 GMT 55.954559 37.046482 9,525 330 254 2752
2020-03-26 12:57:57 GMT 55.951088 37.050190 7,600 277 255 3520
2020-03-26 12:57:53 GMT 55.943687 37.060745 9,100 304 250 3200
2020-03-26 12:57:49 GMT 55.939407 37.069370 8,925 311 250 3072
2020-03-26 12:57:44 GMT 55.939407 37.069370 8,775 309 250 3136
2020-03-26 12:57:40 GMT 55.936890 37.075684 8,575 301 250 3200
2020-03-26 12:57:36 GMT 55.935059 37.081272 8,150 296 250 3328
2020-03-26 12:57:33 GMT 55.933548 37.087013 8,250 293 251 3392
2020-03-26 12:57:27 GMT 55.931396 37.097836 7,500 281 254 3584
2020-03-26 12:57:23 GMT 55.930325 37.106323 7,675 278 255 3520
2020-03-26 12:57:19 GMT 55.929794 37.115395 7,350 269 258 3328
2020-03-26 12:57:16 GMT 55.929794 37.122719 7,225 268 259 3264
2020-03-26 12:57:11 GMT 55.930389 37.132626 6,725 257 261 3328
2020-03-26 12:57:08 GMT 55.931168 37.139614 6,800 257 261 3328
2020-03-26 12:57:04 GMT 55.932037 37.145691 6,275 256 255 1664
2020-03-26 12:57:01 GMT 55.933121 37.153358 6,475 256 260 3328
2020-03-26 12:56:57 GMT 55.934235 37.161255 6,225 256 258 2752
2020-03-26 12:56:52 GMT 55.935608 37.171326 5,975 256 257 2368
2020-03-26 12:56:48 GMT 55.936798 37.179565 5,850 257 252 1152
2020-03-26 12:56:44 GMT 55.937805 37.186974 5,775 257 246 768
2020-03-26 12:56:41 GMT 55.938660 37.193184 5,675 256 224 2560
2020-03-26 12:56:35 GMT 55.941422 37.212692 5,500 256 215 1792
2020-03-26 12:56:32 GMT 55.941422 37.212692 5,525 256 224 2560
2020-03-26 12:56:29 GMT 55.941826 37.215588 5,400 256 221 2944
2020-03-26 12:56:26 GMT 55.942749 37.221764 5,325 256 221 3072
2020-03-26 12:56:23 GMT 55.943253 37.225174 4,950 256 220 3136
2020-03-26 12:56:19 GMT 55.944580 37.233997 4,950 256 220 3072
2020-03-26 12:56:16 GMT 55.945362 37.239101 4,800 255 220 2944
2020-03-26 12:56:12 GMT 55.946571 37.247169 4,500 256 220 2496
2020-03-26 12:56:05 GMT 55.948387 37.259445 4,275 256 218 2112
2020-03-26 12:56:02 GMT 55.949413 37.266228 4,150 256 215 1728
2020-03-26 12:55:57 GMT 55.950249 37.271805 4,050 256 211 1088
2020-03-26 12:55:54 GMT 55.951042 37.277126 3,900 255 207 832
2020-03-26 12:55:49 GMT 55.952271 37.285435 3,750 255 199 1152
2020-03-26 12:55:44 GMT 55.953461 37.293091 3,825 255 188 1664
2020-03-26 12:55:41 GMT 55.954021 37.296867 3,125 256 173 1024
2020-03-26 12:55:37 GMT 55.955109 37.304409 3,625 256 178 960
2020-03-26 12:55:34 GMT 55.955612 37.307823 3,575 256 175 1024
2020-03-26 12:55:30 GMT 55.956257 37.312317 3,550 255 161 1920
2020-03-26 12:55:24 GMT 55.957558 37.321072 3,375 256 159 2048
2020-03-26 12:55:20 GMT 55.958405 37.326881 2,525 256 150 2176
2020-03-26 12:55:16 GMT 55.958954 37.330769 3,075 256 154 2240
2020-03-26 12:55:13 GMT 55.959419 37.333775 2,975 256 154 2432
2020-03-26 12:55:04 GMT 55.961197 37.345943 2,575 256 150 2176
2020-03-26 12:54:59 GMT 55.961884 37.350517 2,450 256 149 2496
2020-03-26 12:54:56 GMT 55.962585 37.355316 2,275 256 149 2240
2020-03-26 12:54:53 GMT 55.963028 37.358425 2,175 256 149 2368
2020-03-26 12:54:50 GMT 55.963623 37.362503 2,025 256 146 2048
2020-03-26 12:54:45 GMT 55.964310 37.367416 1,900 256 146 1984
2020-03-26 12:54:40 GMT 55.965225 37.373905 1,700 256 142 1792
2020-03-26 12:54:34 GMT 55.966080 37.379868 1,550 256 136 2624

Making use of Plane Finder data

You are free to use the raw flight data, aircraft information and images provided in this report for your own purposes provided the data is correctly attributed to Plane Finder. We ask that you please credit Plane Finder and link to planefinder.net in close proximity to the content.

Optionally one of the following logos (no smaller then 150x24px) can be used and must link to planefinder.net

Embedding the Plane Finder map

You are welcome to embed the Plane Finder playback map on your website to offer visitors a more interactive experience. We suggest using the following HTML code:

<iframe src="//planefinder.net/data/report/SU1330-RA-89110-7700-squawk-2020-03-26/map" width="800" height="600" seamless="seamless"></iframe>

Where our data comes from

Plane Finder has a global network of data feeds and antenna radars that receive data broadcast directly from aircraft. The primary technologies used are ADS-B and MLAT. We also show feeds from the FAA and a FLARM glider feed.

Click here to find out more about the Plane Finder network.

How we collect our data